Time;durP1;ratioP1;P1;durP2;ratioP2;P2;SDS_P1;SDS_P2;PMS_P1;PMS_P2;Temp;Humidity;BMP_temperature;BMP_pressure;BME280_temperature;BME280_humidity;BME280_pressure;Samples;Min_cycle;Max_cycle;Signal;HPM_P1;HPM_P2
2022/05/22 00:00:34;;;;;;;2.47;1.38;;;;;;;;;;5042683;28;20202;-80
2022/05/22 00:03:03;;;;;;;3.08;1.58;;;;;;;;;;5052415;28;20199;-79
2022/05/22 00:05:30;;;;;;;1.90;1.60;;;;;;;;;;5051849;28;20616;-79
2022/05/22 00:07:57;;;;;;;4.72;1.35;;;;;;;;;;5052542;28;20191;-79
2022/05/22 00:10:25;;;;;;;4.65;1.77;;;;;;;;;;5049553;28;20207;-79
2022/05/22 00:12:52;;;;;;;2.15;1.20;;;;;;;;;;5044866;28;20563;-79
2022/05/22 00:15:19;;;;;;;1.92;1.73;;;;;;;;;;5042871;28;20211;-79
2022/05/22 00:17:47;;;;;;;2.83;1.70;;;;;;;;;;5049608;28;20226;-79
2022/05/22 00:20:15;;;;;;;5.80;1.95;;;;;;;;;;5047904;28;20199;-79
2022/05/22 00:22:42;;;;;;;4.53;1.45;;;;;;;;;;5049419;28;20652;-80
2022/05/22 00:25:11;;;;;;;4.10;1.65;;;;;;;;;;5051541;28;20203;-79
2022/05/22 00:27:38;;;;;;;2.80;1.77;;;;;;;;;;5040138;28;20623;-79
2022/05/22 00:30:06;;;;;;;2.50;1.45;;;;;;;;;;5039549;28;20199;-81
2022/05/22 00:32:33;;;;;;;4.78;1.83;;;;;;;;;;5039564;28;20658;-79
2022/05/22 00:35:02;;;;;;;2.10;1.77;;;;;;;;;;5041309;28;20207;-79
2022/05/22 00:37:29;;;;;;;2.40;1.85;;;;;;;;;;5038099;28;20218;-80
2022/05/22 00:39:56;;;;;;;2.40;1.52;;;;;;;;;;5036486;28;20206;-80
2022/05/22 00:42:26;;;;;;;2.35;1.33;;;;;;;;;;5047991;28;20223;-80
2022/05/22 00:44:54;;;;;;;5.80;1.55;;;;;;;;;;5043142;28;20578;-78
2022/05/22 00:47:22;;;;;;;3.00;1.95;;;;;;;;;;5050360;28;20199;-79
2022/05/22 00:49:50;;;;;;;4.93;1.80;;;;;;;;;;5043690;28;20195;-79
2022/05/22 00:52:20;;;;;;;1.58;1.48;;;;;;;;;;5037314;28;20612;-79
2022/05/22 00:54:50;;;;;;;2.00;1.40;;;;;;;;;;5038371;28;20741;-79
2022/05/22 00:57:18;;;;;;;4.68;1.63;;;;;;;;;;5044266;28;20337;-79
2022/05/22 00:59:48;;;;;;;2.05;1.50;;;;;;;;;;5039157;28;20571;-80
2022/05/22 01:02:15;;;;;;;2.88;1.73;;;;;;;;;;5036918;28;20221;-81
2022/05/22 01:04:44;;;;;;;7.18;1.70;;;;;;;;;;5040374;28;20204;-79
2022/05/22 01:07:12;;;;;;;2.17;1.77;;;;;;;;;;5039597;28;20658;-81
2022/05/22 01:09:40;;;;;;;1.60;1.50;;;;;;;;;;5041292;28;20203;-78
2022/05/22 01:12:09;;;;;;;2.05;1.63;;;;;;;;;;5038774;28;20195;-79
2022/05/22 01:14:37;;;;;;;5.18;1.50;;;;;;;;;;5038436;28;20196;-80
2022/05/22 01:17:05;;;;;;;4.50;1.60;;;;;;;;;;5039930;28;20242;-80
2022/05/22 01:19:32;;;;;;;2.50;2.00;;;;;;;;;;5046031;28;20199;-79
2022/05/22 01:22:01;;;;;;;3.20;1.55;;;;;;;;;;5041132;28;20194;-79
2022/05/22 01:24:28;;;;;;;1.75;1.60;;;;;;;;;;5043808;28;20198;-80
2022/05/22 01:26:58;;;;;;;2.53;2.10;;;;;;;;;;5039713;28;20195;-79
2022/05/22 01:29:25;;;;;;;6.13;2.50;;;;;;;;;;5039288;28;20575;-79
2022/05/22 01:31:52;;;;;;;3.20;1.67;;;;;;;;;;5038848;28;20200;-80
2022/05/22 01:34:19;;;;;;;2.40;1.63;;;;;;;;;;5038002;28;20199;-79
2022/05/22 01:36:46;;;;;;;2.53;2.00;;;;;;;;;;5036998;28;20207;-80
2022/05/22 01:39:15;;;;;;;4.70;2.05;;;;;;;;;;5043232;28;20203;-80
2022/05/22 01:41:42;;;;;;;3.50;2.05;;;;;;;;;;5049230;28;20674;-80
2022/05/22 01:44:09;;;;;;;2.38;1.45;;;;;;;;;;5041042;28;20203;-80
2022/05/22 01:46:36;;;;;;;2.17;1.55;;;;;;;;;;5042675;28;20669;-80
2022/05/22 01:49:03;;;;;;;5.40;1.70;;;;;;;;;;5041673;28;20203;-80
2022/05/22 01:51:34;;;;;;;2.25;1.40;;;;;;;;;;5042358;28;20202;-80
2022/05/22 01:54:01;;;;;;;3.20;1.70;;;;;;;;;;5044908;28;20203;-80
2022/05/22 01:56:30;;;;;;;3.15;1.55;;;;;;;;;;5050218;28;20211;-80
2022/05/22 01:58:57;;;;;;;2.30;1.35;;;;;;;;;;5040948;28;20567;-80
2022/05/22 02:01:24;;;;;;;2.63;2.00;;;;;;;;;;5038482;28;20202;-81
2022/05/22 02:03:51;;;;;;;1.98;1.40;;;;;;;;;;5042509;28;20266;-79
2022/05/22 02:06:18;;;;;;;2.25;1.85;;;;;;;;;;5031028;28;20196;-79
2022/05/22 02:08:44;;;;;;;5.38;2.28;;;;;;;;;;5041064;28;20642;-80
2022/05/22 02:11:11;;;;;;;4.10;2.10;;;;;;;;;;5046397;28;20191;-80
2022/05/22 02:13:43;;;;;;;4.15;1.80;;;;;;;;;;5032161;28;20463;-81
2022/05/22 02:16:10;;;;;;;2.92;1.88;;;;;;;;;;5039642;28;20283;-79
2022/05/22 02:18:37;;;;;;;3.55;1.77;;;;;;;;;;5042967;28;20216;-80
2022/05/22 02:21:04;;;;;;;2.75;2.05;;;;;;;;;;5038244;28;20199;-80
2022/05/22 02:23:32;;;;;;;1.60;1.50;;;;;;;;;;5039727;28;20211;-79
2022/05/22 02:25:59;;;;;;;1.80;1.55;;;;;;;;;;5041497;28;20217;-81
2022/05/22 02:28:27;;;;;;;2.65;1.50;;;;;;;;;;5040262;28;20187;-79
2022/05/22 02:30:58;;;;;;;4.28;1.95;;;;;;;;;;5037187;28;20203;-79
2022/05/22 02:33:25;;;;;;;1.80;1.27;;;;;;;;;;5040923;28;20685;-79
2022/05/22 02:35:52;;;;;;;2.10;1.90;;;;;;;;;;5038853;28;20195;-81
2022/05/22 02:38:19;;;;;;;5.03;3.75;;;;;;;;;;5038905;28;20219;-82
2022/05/22 02:40:47;;;;;;;1.73;1.63;;;;;;;;;;5036917;28;20222;-82
2022/05/22 02:43:14;;;;;;;3.72;2.55;;;;;;;;;;5039061;28;20225;-81
2022/05/22 02:45:42;;;;;;;2.10;1.88;;;;;;;;;;5039177;28;20206;-79
2022/05/22 02:48:11;;;;;;;2.35;1.60;;;;;;;;;;5040872;28;20739;-80
2022/05/22 02:50:38;;;;;;;3.50;1.50;;;;;;;;;;5044236;28;20252;-78
2022/05/22 02:53:06;;;;;;;3.90;1.70;;;;;;;;;;5042733;28;20202;-80
2022/05/22 02:55:33;;;;;;;1.90;1.40;;;;;;;;;;5042921;28;20209;-77
2022/05/22 02:58:00;;;;;;;3.25;1.83;;;;;;;;;;5045062;28;20222;-77
2022/05/22 03:00:30;;;;;;;5.55;1.40;;;;;;;;;;5039124;28;20205;-76
2022/05/22 03:02:57;;;;;;;2.33;1.67;;;;;;;;;;5043401;28;21644;-76
2022/05/22 03:05:26;;;;;;;3.65;1.95;;;;;;;;;;5040633;28;20195;-78
2022/05/22 03:07:54;;;;;;;3.47;1.92;;;;;;;;;;5038409;28;20195;-78
2022/05/22 03:10:21;;;;;;;3.20;1.90;;;;;;;;;;5042680;28;20207;-78
2022/05/22 03:12:48;;;;;;;4.25;1.80;;;;;;;;;;5036400;28;20617;-78
2022/05/22 03:15:15;;;;;;;3.22;1.83;;;;;;;;;;5041917;28;20202;-77
2022/05/22 03:17:46;;;;;;;3.05;1.50;;;;;;;;;;5040377;28;20227;-78
2022/05/22 03:20:13;;;;;;;3.00;1.50;;;;;;;;;;5048172;28;20208;-77
2022/05/22 03:22:41;;;;;;;2.13;1.70;;;;;;;;;;5048355;28;20685;-78
2022/05/22 03:25:09;;;;;;;2.30;1.67;;;;;;;;;;5049180;28;20206;-78
2022/05/22 03:27:36;;;;;;;2.15;1.83;;;;;;;;;;5053352;28;20209;-80
2022/05/22 03:30:04;;;;;;;5.45;2.58;;;;;;;;;;5038472;28;20208;-81
2022/05/22 03:32:32;;;;;;;2.75;1.75;;;;;;;;;;5038442;28;20206;-80
2022/05/22 03:34:59;;;;;;;2.92;2.00;;;;;;;;;;5043631;28;20210;-78
2022/05/22 03:37:27;;;;;;;2.20;1.30;;;;;;;;;;5035501;28;20238;-78
2022/05/22 03:39:55;;;;;;;1.85;1.65;;;;;;;;;;5044914;28;20217;-81
2022/05/22 03:42:24;;;;;;;2.75;2.00;;;;;;;;;;5039287;28;20699;-77
2022/05/22 03:44:51;;;;;;;1.38;1.27;;;;;;;;;;5042168;28;20243;-79
2022/05/22 03:47:18;;;;;;;3.35;2.22;;;;;;;;;;5046127;28;20203;-78
2022/05/22 03:49:45;;;;;;;2.25;1.80;;;;;;;;;;5042727;28;20215;-79
2022/05/22 03:52:12;;;;;;;2.42;1.50;;;;;;;;;;5042693;28;20213;-78
2022/05/22 03:54:39;;;;;;;3.28;1.60;;;;;;;;;;5053000;28;20208;-77
2022/05/22 03:57:09;;;;;;;2.28;1.50;;;;;;;;;;5050576;28;20680;-77
2022/05/22 03:59:38;;;;;;;2.40;1.75;;;;;;;;;;5050973;28;20247;-77
2022/05/22 04:02:06;;;;;;;4.05;2.03;;;;;;;;;;5047581;28;20264;-77
2022/05/22 04:04:34;;;;;;;1.67;1.38;;;;;;;;;;5051260;28;20198;-77
2022/05/22 04:07:01;;;;;;;1.85;1.75;;;;;;;;;;5053401;28;20201;-78
2022/05/22 04:09:28;;;;;;;3.20;1.65;;;;;;;;;;5051575;28;20206;-79
2022/05/22 04:11:56;;;;;;;3.85;2.38;;;;;;;;;;5040348;28;20267;-78
2022/05/22 04:14:26;;;;;;;3.90;2.10;;;;;;;;;;5047858;28;20592;-77
2022/05/22 04:16:53;;;;;;;4.57;1.95;;;;;;;;;;5046496;28;20203;-78
2022/05/22 04:19:21;;;;;;;2.28;1.65;;;;;;;;;;5051808;28;20217;-78
2022/05/22 04:21:48;;;;;;;2.38;1.40;;;;;;;;;;5036555;28;20203;-79
2022/05/22 04:27:03;;;;;;;2.75;1.60;;;;;;;;;;5043496;28;20990;-79
2022/05/22 04:29:33;;;;;;;4.88;2.13;;;;;;;;;;5046781;28;20682;-79
2022/05/22 04:32:00;;;;;;;4.43;1.48;;;;;;;;;;5044454;28;20656;-80
2022/05/22 04:34:27;;;;;;;1.30;1.20;;;;;;;;;;5051693;28;20196;-78
2022/05/22 04:36:54;;;;;;;5.57;1.58;;;;;;;;;;5049580;28;20652;-78
2022/05/22 04:39:21;;;;;;;2.35;2.13;;;;;;;;;;5051918;28;20278;-77
2022/05/22 04:41:49;;;;;;;2.33;1.50;;;;;;;;;;5050229;28;20216;-77
2022/05/22 04:44:16;;;;;;;3.80;2.10;;;;;;;;;;5041500;28;20589;-77
2022/05/22 04:46:45;;;;;;;2.90;1.70;;;;;;;;;;5039122;28;20194;-77
2022/05/22 04:49:12;;;;;;;2.00;1.77;;;;;;;;;;5050205;28;20201;-78
2022/05/22 04:51:39;;;;;;;2.45;2.05;;;;;;;;;;5041139;28;20658;-79
2022/05/22 04:54:07;;;;;;;3.03;2.00;;;;;;;;;;5050676;28;20217;-78
2022/05/22 04:56:34;;;;;;;1.70;1.50;;;;;;;;;;5046985;28;20195;-78
2022/05/22 04:59:01;;;;;;;3.08;1.70;;;;;;;;;;5044103;28;20224;-80
2022/05/22 05:01:28;;;;;;;2.53;2.00;;;;;;;;;;5042381;28;20206;-78
2022/05/22 05:03:56;;;;;;;3.40;1.80;;;;;;;;;;5045332;28;20193;-77
2022/05/22 05:06:23;;;;;;;1.42;1.33;;;;;;;;;;5042236;28;20199;-77
2022/05/22 05:08:50;;;;;;;2.63;1.55;;;;;;;;;;5035949;28;20649;-77
2022/05/22 05:11:17;;;;;;;3.85;1.65;;;;;;;;;;5044548;28;20921;-78
2022/05/22 05:13:44;;;;;;;3.30;1.92;;;;;;;;;;5042589;28;21239;-76
2022/05/22 05:16:13;;;;;;;2.42;1.80;;;;;;;;;;5039551;28;20205;-79
2022/05/22 05:18:40;;;;;;;2.40;2.08;;;;;;;;;;5041418;28;20217;-79
2022/05/22 05:21:10;;;;;;;4.85;2.20;;;;;;;;;;5042767;28;20581;-78
2022/05/22 05:23:37;;;;;;;2.00;1.55;;;;;;;;;;5042188;28;20206;-79
2022/05/22 05:26:04;;;;;;;2.65;1.80;;;;;;;;;;5039382;28;20253;-79
2022/05/22 05:28:32;;;;;;;5.85;3.17;;;;;;;;;;5044238;28;20713;-79
2022/05/22 05:30:59;;;;;;;3.47;1.90;;;;;;;;;;5032294;28;20811;-78
2022/05/22 05:33:26;;;;;;;5.78;2.00;;;;;;;;;;5038957;28;20201;-81
2022/05/22 05:35:54;;;;;;;2.25;1.77;;;;;;;;;;5039310;28;20202;-78
2022/05/22 05:38:22;;;;;;;2.58;2.00;;;;;;;;;;5046752;28;20644;-79
2022/05/22 05:40:49;;;;;;;3.92;2.00;;;;;;;;;;5042813;28;20640;-78
2022/05/22 05:43:16;;;;;;;5.60;2.10;;;;;;;;;;5037766;28;20223;-80
2022/05/22 05:45:44;;;;;;;5.97;2.42;;;;;;;;;;5046108;28;20202;-80
2022/05/22 05:48:11;;;;;;;1.45;1.30;;;;;;;;;;5043019;28;20198;-79
2022/05/22 05:50:38;;;;;;;4.25;1.70;;;;;;;;;;5039096;28;20199;-80
2022/05/22 05:53:05;;;;;;;3.92;1.60;;;;;;;;;;5042382;28;20640;-80
2022/05/22 05:55:34;;;;;;;2.65;1.40;;;;;;;;;;5038075;28;20199;-80
2022/05/22 05:58:03;;;;;;;3.28;2.15;;;;;;;;;;5040453;28;20286;-81
2022/05/22 06:00:30;;;;;;;2.15;1.40;;;;;;;;;;5035178;28;20664;-80
2022/05/22 06:02:58;;;;;;;2.00;1.40;;;;;;;;;;5041759;28;20206;-80
2022/05/22 06:05:25;;;;;;;3.25;1.65;;;;;;;;;;5042357;28;20229;-78
2022/05/22 06:07:52;;;;;;;4.32;1.60;;;;;;;;;;5036249;28;20279;-81
2022/05/22 06:10:20;;;;;;;2.33;1.45;;;;;;;;;;5045222;28;20191;-80
2022/05/22 06:12:48;;;;;;;2.08;1.38;;;;;;;;;;5041672;28;20207;-80
2022/05/22 06:15:15;;;;;;;2.30;1.40;;;;;;;;;;5043505;28;20199;-79
2022/05/22 06:17:44;;;;;;;3.80;1.50;;;;;;;;;;5044131;28;20203;-79
2022/05/22 06:20:13;;;;;;;4.30;1.35;;;;;;;;;;5039095;28;20284;-81
2022/05/22 06:22:40;;;;;;;3.42;1.67;;;;;;;;;;5061157;28;20661;-78
2022/05/22 06:25:08;;;;;;;2.55;1.05;;;;;;;;;;5048588;28;20203;-79
2022/05/22 06:27:35;;;;;;;2.13;1.10;;;;;;;;;;5033939;28;20274;-79
2022/05/22 06:30:04;;;;;;;2.55;1.10;;;;;;;;;;5031141;28;20223;-79
2022/05/22 06:32:32;;;;;;;2.10;1.38;;;;;;;;;;5046374;28;22234;-81
2022/05/22 06:34:59;;;;;;;2.70;1.15;;;;;;;;;;5047128;28;20215;-79
2022/05/22 06:37:26;;;;;;;3.80;1.30;;;;;;;;;;5045229;28;20207;-78
2022/05/22 06:39:53;;;;;;;2.25;1.55;;;;;;;;;;5050952;28;20665;-79
2022/05/22 06:42:22;;;;;;;1.83;1.17;;;;;;;;;;5037577;28;20211;-80
2022/05/22 06:44:56;;;;;;;2.45;0.90;;;;;;;;;;5035837;28;20192;-79
2022/05/22 06:47:25;;;;;;;2.38;1.10;;;;;;;;;;5041175;28;20210;-78
2022/05/22 06:49:52;;;;;;;1.38;0.95;;;;;;;;;;5041143;28;20192;-78
2022/05/22 06:52:20;;;;;;;2.67;1.30;;;;;;;;;;5040488;28;20192;-81
2022/05/22 06:54:47;;;;;;;1.73;1.20;;;;;;;;;;5036878;28;20196;-79
2022/05/22 06:57:16;;;;;;;3.28;1.42;;;;;;;;;;5042193;28;20261;-78
2022/05/22 06:59:43;;;;;;;1.40;1.00;;;;;;;;;;5039426;28;20207;-79
2022/05/22 07:02:10;;;;;;;1.75;1.02;;;;;;;;;;5037888;28;20199;-79
2022/05/22 07:04:39;;;;;;;2.08;1.10;;;;;;;;;;5035181;28;20211;-80
2022/05/22 07:07:06;;;;;;;1.48;1.38;;;;;;;;;;5034229;28;20219;-79
2022/05/22 07:09:33;;;;;;;2.42;1.20;;;;;;;;;;5038123;28;20187;-78
2022/05/22 07:12:00;;;;;;;4.30;1.40;;;;;;;;;;5038787;28;20205;-79
2022/05/22 07:14:28;;;;;;;3.08;1.45;;;;;;;;;;5044816;28;20210;-80
2022/05/22 07:16:55;;;;;;;3.30;1.60;;;;;;;;;;5041659;28;20234;-79
2022/05/22 07:19:23;;;;;;;3.50;1.38;;;;;;;;;;5040553;28;20207;-78
2022/05/22 07:21:51;;;;;;;1.40;1.00;;;;;;;;;;5036829;28;20203;-81
2022/05/22 07:24:18;;;;;;;1.95;1.00;;;;;;;;;;5045571;28;20207;-78
2022/05/22 07:26:45;;;;;;;2.50;1.10;;;;;;;;;;5042853;28;20198;-78
2022/05/22 07:29:12;;;;;;;2.53;1.40;;;;;;;;;;5050606;28;20230;-79
2022/05/22 07:31:40;;;;;;;2.30;1.10;;;;;;;;;;5042266;28;20203;-78
2022/05/22 07:34:08;;;;;;;1.92;0.98;;;;;;;;;;5048757;28;20206;-79
2022/05/22 07:36:35;;;;;;;2.90;1.10;;;;;;;;;;5035972;28;20631;-78
2022/05/22 07:39:04;;;;;;;3.35;1.50;;;;;;;;;;5042913;28;20301;-80
2022/05/22 07:41:31;;;;;;;7.03;1.17;;;;;;;;;;5042856;28;20625;-78
2022/05/22 07:43:59;;;;;;;2.85;1.20;;;;;;;;;;5039701;28;20292;-79
2022/05/22 07:46:26;;;;;;;1.85;1.10;;;;;;;;;;5040167;28;20203;-80
2022/05/22 07:48:53;;;;;;;1.90;1.10;;;;;;;;;;5040841;28;20191;-80
2022/05/22 07:51:20;;;;;;;3.95;1.52;;;;;;;;;;5044843;28;20195;-77
2022/05/22 07:53:48;;;;;;;2.65;1.30;;;;;;;;;;5046457;28;20207;-79
2022/05/22 07:56:21;;;;;;;5.15;1.00;;;;;;;;;;5041544;28;20207;-80
2022/05/22 07:58:48;;;;;;;3.13;1.45;;;;;;;;;;5048555;28;20701;-79
2022/05/22 08:01:15;;;;;;;2.35;1.15;;;;;;;;;;5044128;28;20203;-80
2022/05/22 08:03:42;;;;;;;2.65;1.27;;;;;;;;;;5049044;28;20300;-78
2022/05/22 08:06:09;;;;;;;2.03;1.25;;;;;;;;;;5038668;28;20221;-81
2022/05/22 08:08:37;;;;;;;2.10;1.00;;;;;;;;;;5044350;28;20193;-80
2022/05/22 08:11:04;;;;;;;7.75;1.52;;;;;;;;;;5050234;28;20205;-80
2022/05/22 08:13:32;;;;;;;2.20;1.40;;;;;;;;;;5040599;28;20201;-80
2022/05/22 08:15:59;;;;;;;1.50;1.30;;;;;;;;;;5047408;28;20207;-82
2022/05/22 08:18:26;;;;;;;2.67;1.00;;;;;;;;;;5044679;28;20206;-82
2022/05/22 08:20:53;;;;;;;1.65;1.20;;;;;;;;;;5038667;28;20751;-82
2022/05/22 08:23:21;;;;;;;2.40;1.58;;;;;;;;;;5047178;28;20199;-79
2022/05/22 08:25:49;;;;;;;1.33;1.10;;;;;;;;;;5041197;28;20594;-80
2022/05/22 08:28:17;;;;;;;1.30;1.00;;;;;;;;;;5051954;28;20195;-79
2022/05/22 08:30:46;;;;;;;2.95;1.17;;;;;;;;;;5041759;28;20199;-79
2022/05/22 08:33:13;;;;;;;4.57;1.70;;;;;;;;;;5043803;28;20237;-79
2022/05/22 08:35:41;;;;;;;2.97;1.65;;;;;;;;;;5040916;28;20562;-79
2022/05/22 08:38:08;;;;;;;2.20;1.15;;;;;;;;;;5044301;28;20199;-80
2022/05/22 08:40:48;;;;;;;2.25;1.00;;;;;;;;;;5042109;28;20246;-81
2022/05/22 08:43:17;;;;;;;2.63;1.10;;;;;;;;;;5044444;28;20229;-79
2022/05/22 08:45:46;;;;;;;2.65;1.75;;;;;;;;;;5043344;28;20208;-80
2022/05/22 08:48:16;;;;;;;3.17;0.80;;;;;;;;;;5041247;28;20191;-79
2022/05/22 08:50:44;;;;;;;5.60;1.70;;;;;;;;;;5039395;28;20195;-80
2022/05/22 08:53:17;;;;;;;1.30;1.10;;;;;;;;;;5050473;28;20669;-79
2022/05/22 09:01:22;;;;;;;2.90;1.10;;;;;;;;;;5047103;28;20191;-81
2022/05/22 09:03:52;;;;;;;5.43;1.47;;;;;;;;;;5048834;28;20465;-80
2022/05/22 09:06:26;;;;;;;2.38;1.20;;;;;;;;;;5046143;28;20464;-80
2022/05/22 09:08:53;;;;;;;2.75;1.30;;;;;;;;;;5051270;28;20543;-80
2022/05/22 09:11:26;;;;;;;2.67;1.40;;;;;;;;;;5051138;28;20203;-80
2022/05/22 09:13:56;;;;;;;1.55;1.00;;;;;;;;;;5048667;28;20222;-80
2022/05/22 09:16:29;;;;;;;1.87;1.03;;;;;;;;;;5046570;28;20238;-79
2022/05/22 09:18:59;;;;;;;5.10;1.17;;;;;;;;;;5049823;28;20433;-80
2022/05/22 09:21:31;;;;;;;2.67;1.30;;;;;;;;;;5039811;28;20573;-82
2022/05/22 09:24:00;;;;;;;2.42;1.15;;;;;;;;;;5044613;28;20230;-80
2022/05/22 09:26:34;;;;;;;1.75;1.05;;;;;;;;;;5037733;28;20211;-80
2022/05/22 09:29:05;;;;;;;1.90;1.00;;;;;;;;;;5045190;28;20237;-81
2022/05/22 09:31:38;;;;;;;1.38;0.90;;;;;;;;;;5042291;28;20199;-83
2022/05/22 09:34:09;;;;;;;2.00;1.10;;;;;;;;;;5038397;28;20206;-83
2022/05/22 09:36:42;;;;;;;1.92;1.00;;;;;;;;;;5042479;28;20203;-83
2022/05/22 09:39:16;;;;;;;2.00;0.90;;;;;;;;;;5046896;28;20202;-84
2022/05/22 09:41:49;;;;;;;1.83;1.23;;;;;;;;;;5039564;28;20211;-83
2022/05/22 09:44:37;;;;;;;2.83;1.38;;;;;;;;;;5039733;28;20782;-85
2022/05/22 09:47:25;;;;;;;2.65;1.30;;;;;;;;;;5041546;28;20566;-83
2022/05/22 09:50:00;;;;;;;1.95;1.08;;;;;;;;;;5036616;28;20200;-84
2022/05/22 09:52:31;;;;;;;3.03;1.25;;;;;;;;;;5041521;28;20201;-82
2022/05/22 09:55:08;;;;;;;2.05;1.00;;;;;;;;;;5042017;28;20198;-83
2022/05/22 09:57:41;;;;;;;1.88;1.35;;;;;;;;;;5041290;28;20210;-82
2022/05/22 10:00:11;;;;;;;2.80;1.15;;;;;;;;;;5043294;28;20226;-82
2022/05/22 10:02:42;;;;;;;4.03;1.65;;;;;;;;;;5042531;28;20195;-83
2022/05/22 10:05:13;;;;;;;2.25;0.85;;;;;;;;;;5039152;28;20555;-81
2022/05/22 10:07:45;;;;;;;2.25;1.10;;;;;;;;;;5038733;28;20195;-81
2022/05/22 10:10:13;;;;;;;1.90;1.02;;;;;;;;;;5038833;28;20199;-82
2022/05/22 10:12:46;;;;;;;3.65;1.20;;;;;;;;;;5040615;28;20673;-80
2022/05/22 10:15:19;;;;;;;3.63;1.20;;;;;;;;;;5043883;28;20198;-82
2022/05/22 10:17:55;;;;;;;2.83;1.20;;;;;;;;;;5046407;28;20218;-83
2022/05/22 10:20:30;;;;;;;2.20;1.45;;;;;;;;;;5036920;28;20219;-82
2022/05/22 10:23:02;;;;;;;2.53;1.60;;;;;;;;;;5042888;28;20206;-84
2022/05/22 10:25:40;;;;;;;1.65;1.38;;;;;;;;;;5040085;28;20841;-82
2022/05/22 10:28:10;;;;;;;1.50;1.00;;;;;;;;;;5042913;28;20195;-82
2022/05/22 10:30:41;;;;;;;2.43;1.10;;;;;;;;;;5044740;28;20195;-82
2022/05/22 10:33:12;;;;;;;1.50;1.20;;;;;;;;;;5036121;28;20470;-82
2022/05/22 10:35:42;;;;;;;3.03;1.50;;;;;;;;;;5036121;28;21836;-82
2022/05/22 10:38:12;;;;;;;5.03;1.63;;;;;;;;;;5042233;28;20203;-81
2022/05/22 10:43:30;;;;;;;2.45;1.45;;;;;;;;;;5041644;28;20276;-79
2022/05/22 10:45:57;;;;;;;1.63;1.10;;;;;;;;;;5043958;28;20219;-83
2022/05/22 10:48:27;;;;;;;2.85;1.73;;;;;;;;;;5047649;28;20195;-81
2022/05/22 10:50:55;;;;;;;2.67;1.23;;;;;;;;;;5044416;28;20282;-80
2022/05/22 10:53:25;;;;;;;2.20;1.20;;;;;;;;;;5052774;28;20666;-83
2022/05/22 10:55:54;;;;;;;1.52;1.30;;;;;;;;;;5043935;28;20210;-84
2022/05/22 10:58:25;;;;;;;1.73;1.40;;;;;;;;;;5045640;28;20203;-83
2022/05/22 11:00:53;;;;;;;3.08;1.33;;;;;;;;;;5048909;28;20219;-83
2022/05/22 11:03:26;;;;;;;6.50;1.80;;;;;;;;;;5040783;28;20200;-83
2022/05/22 11:05:55;;;;;;;5.65;2.15;;;;;;;;;;5040135;28;20196;-78
2022/05/22 11:08:28;;;;;;;1.77;1.35;;;;;;;;;;5046696;28;20199;-81
2022/05/22 11:10:57;;;;;;;2.20;1.38;;;;;;;;;;5039731;28;20603;-81
2022/05/22 11:13:26;;;;;;;2.03;1.25;;;;;;;;;;5042520;28;20269;-78
2022/05/22 11:15:54;;;;;;;5.20;2.30;;;;;;;;;;5042288;28;20667;-80
2022/05/22 11:18:22;;;;;;;3.53;1.95;;;;;;;;;;5045577;28;20214;-82
2022/05/22 11:20:51;;;;;;;3.67;1.55;;;;;;;;;;5039951;28;20239;-83
2022/05/22 11:23:42;;;;;;;2.83;1.85;;;;;;;;;;5049164;28;20203;-83
2022/05/22 11:26:14;;;;;;;6.47;2.53;;;;;;;;;;5044220;28;20192;-82
2022/05/22 11:28:50;;;;;;;3.90;1.60;;;;;;;;;;5045869;28;20659;-81
2022/05/22 11:31:25;;;;;;;5.90;2.08;;;;;;;;;;5043751;28;20195;-82
2022/05/22 11:34:04;;;;;;;2.20;1.55;;;;;;;;;;5040827;28;20249;-86
2022/05/22 11:36:39;;;;;;;2.47;1.50;;;;;;;;;;5046368;28;20206;-82
2022/05/22 11:39:16;;;;;;;6.55;2.30;;;;;;;;;;5046122;28;20205;-81
2022/05/22 11:41:47;;;;;;;1.50;1.30;;;;;;;;;;5040787;28;20229;-80
2022/05/22 11:44:32;;;;;;;3.45;1.75;;;;;;;;;;5036259;28;20194;-81
2022/05/22 11:47:08;;;;;;;3.42;1.90;;;;;;;;;;5047159;28;20211;-80
2022/05/22 11:49:39;;;;;;;2.33;1.60;;;;;;;;;;5044382;28;20591;-81
2022/05/22 11:52:53;;;;;;;2.05;1.85;;;;;;;;;;5052206;28;20708;-79
2022/05/22 11:55:09;;;;;;;3.53;1.90;;;;;;;;;;5033921;28;20199;-81
2022/05/22 11:57:38;;;;;;;2.65;2.10;;;;;;;;;;5048933;28;20196;-79
2022/05/22 12:00:09;;;;;;;4.57;2.80;;;;;;;;;;5046407;28;20222;-81
2022/05/22 12:02:43;;;;;;;1.92;1.40;;;;;;;;;;5039041;28;20222;-80
2022/05/22 12:05:15;;;;;;;10.27;2.65;;;;;;;;;;5043079;28;20234;-83
2022/05/22 12:07:50;;;;;;;2.40;1.73;;;;;;;;;;5048744;28;20211;-82
2022/05/22 12:10:22;;;;;;;3.50;2.00;;;;;;;;;;5038741;28;20219;-82
2022/05/22 12:12:53;;;;;;;4.50;2.17;;;;;;;;;;5035151;28;20196;-82
2022/05/22 12:15:23;;;;;;;3.63;2.10;;;;;;;;;;5050148;28;20555;-80
2022/05/22 12:17:55;;;;;;;4.38;1.90;;;;;;;;;;5046111;28;20325;-79
2022/05/22 12:20:23;;;;;;;4.10;1.60;;;;;;;;;;5045440;28;20215;-80
2022/05/22 12:23:10;;;;;;;1.92;1.73;;;;;;;;;;5037843;28;20217;-79
2022/05/22 12:25:41;;;;;;;2.05;1.73;;;;;;;;;;5039262;28;20517;-82
2022/05/22 12:28:16;;;;;;;3.28;1.83;;;;;;;;;;5044813;28;20300;-79
2022/05/22 12:30:43;;;;;;;2.35;2.15;;;;;;;;;;5045743;28;20597;-81
2022/05/22 12:33:11;;;;;;;3.30;2.20;;;;;;;;;;5050146;28;20206;-81
2022/05/22 12:35:39;;;;;;;2.30;1.80;;;;;;;;;;5047593;28;20212;-81
2022/05/22 12:38:07;;;;;;;2.75;1.58;;;;;;;;;;5048419;28;20632;-80
2022/05/22 12:40:40;;;;;;;2.70;2.00;;;;;;;;;;5041079;28;20546;-80
2022/05/22 12:43:10;;;;;;;7.30;2.50;;;;;;;;;;5036178;28;20610;-80
2022/05/22 12:45:39;;;;;;;4.70;2.83;;;;;;;;;;5036569;28;20196;-81
2022/05/22 12:48:11;;;;;;;3.90;2.30;;;;;;;;;;5048979;28;20198;-79
2022/05/22 12:50:46;;;;;;;4.50;1.92;;;;;;;;;;5042001;28;20207;-79
2022/05/22 12:53:18;;;;;;;2.72;1.80;;;;;;;;;;5046934;28;20198;-78
2022/05/22 12:55:45;;;;;;;3.20;2.17;;;;;;;;;;5035578;28;20252;-79
2022/05/22 12:58:29;;;;;;;3.00;2.40;;;;;;;;;;5034214;28;20254;-80
2022/05/22 13:00:56;;;;;;;2.40;2.20;;;;;;;;;;5039096;28;20215;-79
2022/05/22 13:03:25;;;;;;;2.75;2.40;;;;;;;;;;5042523;28;20203;-79
2022/05/22 13:05:57;;;;;;;4.55;2.33;;;;;;;;;;5041071;28;20199;-80
2022/05/22 13:08:28;;;;;;;3.35;2.20;;;;;;;;;;5039013;28;20199;-79
2022/05/22 13:10:56;;;;;;;2.67;2.47;;;;;;;;;;5044575;28;20226;-83
2022/05/22 13:13:28;;;;;;;7.75;2.70;;;;;;;;;;5041237;28;20737;-80
2022/05/22 13:15:57;;;;;;;4.40;2.20;;;;;;;;;;5043592;28;20198;-80
2022/05/22 13:18:24;;;;;;;3.60;2.35;;;;;;;;;;5035767;28;20235;-79
2022/05/22 13:20:53;;;;;;;3.97;2.30;;;;;;;;;;5034922;28;20246;-79
2022/05/22 13:23:28;;;;;;;2.80;2.00;;;;;;;;;;5044445;28;20207;-79
2022/05/22 13:25:57;;;;;;;2.90;2.30;;;;;;;;;;5035583;28;20207;-79
2022/05/22 13:28:28;;;;;;;2.70;2.47;;;;;;;;;;5047186;28;20574;-80
2022/05/22 13:30:57;;;;;;;2.75;2.55;;;;;;;;;;5036329;28;20196;-80
2022/05/22 13:33:25;;;;;;;2.72;2.20;;;;;;;;;;5043026;28;20210;-80
2022/05/22 13:35:55;;;;;;;6.55;2.35;;;;;;;;;;5037273;28;20210;-81
2022/05/22 13:38:22;;;;;;;1.88;1.73;;;;;;;;;;5043486;28;20203;-80
2022/05/22 13:40:53;;;;;;;3.88;2.45;;;;;;;;;;5032127;28;20866;-81
2022/05/22 13:43:45;;;;;;;2.53;2.10;;;;;;;;;;5039508;28;20199;-78
2022/05/22 13:46:45;;;;;;;2.20;2.00;;;;;;;;;;5043013;28;20202;-79
2022/05/22 13:49:34;;;;;;;6.45;2.60;;;;;;;;;;5038372;28;20232;-80
2022/05/22 13:54:50;;;;;;;4.22;2.00;;;;;;;;;;5034834;28;20570;-78
2022/05/22 13:57:19;;;;;;;2.92;2.72;;;;;;;;;;5042861;28;20206;-81
2022/05/22 13:59:49;;;;;;;4.22;1.70;;;;;;;;;;5044923;28;20588;-79
2022/05/22 14:02:18;;;;;;;2.72;2.03;;;;;;;;;;5044872;28;20221;-78
2022/05/22 14:04:46;;;;;;;3.33;2.45;;;;;;;;;;5034943;28;20199;-78
2022/05/22 14:07:20;;;;;;;3.38;2.50;;;;;;;;;;5041482;28;20199;-78
2022/05/22 14:09:47;;;;;;;2.90;2.25;;;;;;;;;;5048013;28;20187;-79
2022/05/22 14:12:14;;;;;;;2.85;2.35;;;;;;;;;;5048986;28;20571;-78
2022/05/22 14:14:41;;;;;;;5.40;2.90;;;;;;;;;;5046583;28;20205;-80
2022/05/22 14:17:11;;;;;;;2.85;1.90;;;;;;;;;;5049884;28;20199;-78
2022/05/22 14:19:39;;;;;;;3.78;2.20;;;;;;;;;;5047859;28;20203;-77
2022/05/22 14:22:10;;;;;;;5.45;2.10;;;;;;;;;;5044620;28;20231;-79
2022/05/22 14:24:52;;;;;;;4.88;2.13;;;;;;;;;;5044273;28;20210;-79
2022/05/22 14:27:23;;;;;;;2.95;2.05;;;;;;;;;;5043465;28;20199;-78
2022/05/22 14:29:50;;;;;;;2.15;1.95;;;;;;;;;;5038390;28;20202;-79
2022/05/22 14:32:20;;;;;;;4.93;2.40;;;;;;;;;;5042937;28;20199;-79
2022/05/22 14:34:48;;;;;;;3.70;2.63;;;;;;;;;;5043099;28;20205;-78
2022/05/22 14:37:15;;;;;;;6.18;2.40;;;;;;;;;;5041308;28;20204;-79
2022/05/22 14:39:49;;;;;;;5.60;2.33;;;;;;;;;;5036711;28;20651;-80
2022/05/22 14:42:18;;;;;;;4.30;2.45;;;;;;;;;;5041413;28;20233;-78
2022/05/22 14:44:46;;;;;;;2.85;2.53;;;;;;;;;;5051075;28;20230;-80
2022/05/22 14:47:16;;;;;;;2.97;2.30;;;;;;;;;;5051925;28;20650;-80
2022/05/22 14:49:47;;;;;;;3.38;2.45;;;;;;;;;;5050767;28;20218;-80
2022/05/22 14:52:17;;;;;;;2.90;2.10;;;;;;;;;;5051522;28;20199;-79
2022/05/22 14:54:46;;;;;;;2.28;1.95;;;;;;;;;;5045352;28;20612;-79
2022/05/22 14:57:16;;;;;;;3.38;2.20;;;;;;;;;;5049943;28;20507;-78
2022/05/22 14:59:47;;;;;;;2.53;1.85;;;;;;;;;;5045669;28;20242;-79
2022/05/22 15:02:16;;;;;;;3.22;2.15;;;;;;;;;;5042473;28;20246;-80
2022/05/22 15:04:45;;;;;;;4.05;2.28;;;;;;;;;;5040365;28;20207;-81
2022/05/22 15:07:21;;;;;;;2.35;2.00;;;;;;;;;;5040726;28;20199;-78
2022/05/22 15:09:53;;;;;;;4.63;2.60;;;;;;;;;;5050236;28;20237;-81